Time;durP1;ratioP1;P1;durP2;ratioP2;P2;SDS_P1;SDS_P2;PMS_P1;PMS_P2;Temp;Humidity;BMP_temperature;BMP_pressure;BME280_temperature;BME280_humidity;BME280_pressure;Samples;Min_cycle;Max_cycle;Signal;HPM_P1;HPM_P2
2022/11/03 00:01:49;;;;;;;0.60;0.27;;;19.50;99.90;;;19.59;50.03;101314.91;4857087;28;98164;-51
2022/11/03 00:04:18;;;;;;;0.40;0.30;;;19.20;99.90;;;19.46;50.63;101311.25;4838993;28;100300;-48
2022/11/03 00:06:48;;;;;;;1.20;0.33;;;19.00;99.90;;;19.29;48.99;101304.28;4836293;28;97627;-51
2022/11/03 00:09:16;;;;;;;1.00;0.23;;;18.80;98.10;;;19.18;51.15;101310.28;4849508;28;101172;-50
2022/11/03 00:11:43;;;;;;;1.23;0.40;;;18.60;99.90;;;19.05;44.50;101306.63;4841087;28;99875;-51
2022/11/03 00:14:10;;;;;;;0.07;0.00;;;18.50;97.80;;;18.99;51.25;101297.19;4837530;28;99174;-51
2022/11/03 00:16:37;;;;;;;0.20;0.20;;;18.40;99.90;;;19.03;51.90;101297.84;4856822;28;97721;-52
2022/11/03 00:19:04;;;;;;;0.50;0.20;;;18.50;99.90;;;19.02;52.21;101290.78;4848538;28;99009;-53
2022/11/03 00:21:30;;;;;;;0.90;0.20;;;18.50;99.90;;;19.02;48.33;101296.97;4852201;28;100024;-51
2022/11/03 00:23:56;;;;;;;0.37;0.20;;;18.60;99.50;;;19.02;51.81;101298.78;4854335;28;97632;-50
2022/11/03 00:30:59;;;;;;;1.30;0.30;;;18.70;99.90;;;19.19;51.75;101293.28;4786693;29;99647;-51
2022/11/03 00:33:26;;;;;;;2.00;0.40;;;18.90;99.90;;;19.23;49.47;101273.41;4840634;28;97386;-50
2022/11/03 00:36:02;;;;;;;0.67;0.13;;;19.10;99.90;;;19.37;51.14;101277.88;4833951;28;98409;-47
2022/11/03 00:38:29;;;;;;;0.33;0.20;;;19.30;99.90;;;19.37;47.96;101290.41;4836911;28;97992;-48
2022/11/03 00:41:19;;;;;;;0.57;0.30;;;19.20;99.30;;;19.40;46.24;101274.19;4863113;28;105865;-48
2022/11/03 00:43:45;;;;;;;0.40;0.20;;;19.30;99.90;;;19.39;51.18;101272.47;4864974;28;97508;-49
2022/11/03 00:46:12;;;;;;;0.10;0.10;;;19.20;99.90;;;19.46;51.25;101265.75;4882776;28;97373;-50
2022/11/03 00:48:38;;;;;;;1.97;0.47;;;19.30;99.90;;;19.53;50.00;101261.75;4876911;28;102915;-55
2022/11/03 00:51:29;;;;;;;0.47;0.13;;;19.40;99.90;;;19.59;50.71;101258.72;4882275;28;101629;-49
2022/11/03 00:58:45;;;;;;;0.63;0.10;;;19.50;99.90;;;19.61;50.22;101256.78;4873510;28;97576;-46
2022/11/03 01:16:41;;;;;;;1.50;0.50;;;19.60;99.90;;;19.69;50.39;101249.16;4863010;28;97585;-46
2022/11/03 01:19:07;;;;;;;3.60;0.50;;;19.60;99.90;;;19.75;50.43;101242.53;4894274;28;97050;-47
2022/11/03 01:21:34;;;;;;;0.40;0.20;;;19.80;99.90;;;19.81;50.27;101248.31;4891653;28;97072;-46
2022/11/03 01:27:41;;;;;;;0.70;0.37;;;19.80;99.90;;;19.85;50.19;101233.81;4875502;28;97132;-45
2022/11/03 02:44:07;;;;;;;0.33;0.27;;;19.00;99.90;;;19.20;51.73;101129.19;4769706;29;98116;-47
2022/11/03 02:55:05;;;;;;;0.93;0.50;;;18.90;99.90;;;19.18;51.62;101108.84;4751831;29;97971;-50
2022/11/03 03:03:03;;;;;;;0.67;0.30;;;18.90;99.90;;;19.20;51.37;101097.09;4662865;29;98344;-47
2022/11/03 03:07:08;;;;;;;0.20;0.10;;;18.90;99.90;;;19.18;50.24;101092.81;4668637;29;98057;-47
2022/11/03 03:11:35;;;;;;;0.50;0.20;;;18.90;99.60;;;19.28;51.70;101094.78;4647473;29;101809;-47
2022/11/03 03:18:51;;;;;;;1.20;0.20;;;19.20;99.90;;;19.36;51.19;101085.41;4672474;29;97401;-47
2022/11/03 03:49:02;;;;;;;0.83;0.30;;;19.10;99.90;;;19.37;51.44;101055.88;4623260;29;97751;-45
2022/11/03 04:10:08;;;;;;;1.70;0.20;;;19.60;99.90;;;19.62;50.74;101023.03;4631969;30;99674;-49
2022/11/03 04:25:36;;;;;;;0.60;0.20;;;19.80;99.90;;;19.79;50.48;101012.03;4842159;28;96768;-45
2022/11/03 04:28:45;;;;;;;0.83;0.20;;;19.80;99.90;;;19.82;50.31;100998.47;4887031;28;105850;-47
2022/11/03 04:31:17;;;;;;;0.23;0.13;;;19.80;99.90;;;19.84;50.50;101001.88;4895541;28;97570;-47
2022/11/03 04:34:51;;;;;;;0.50;0.20;;;19.80;99.90;;;19.85;50.07;101002.75;4817720;28;97805;-45
2022/11/03 04:42:24;;;;;;;0.83;0.30;;;19.70;99.80;;;19.77;50.42;100989.88;4757761;29;98667;-45
2022/11/03 04:50:11;;;;;;;0.23;0.23;;;19.60;99.90;;;19.71;50.44;100987.63;4703423;29;97746;-47
2022/11/03 04:54:06;;;;;;;0.30;0.20;;;19.60;99.90;;;19.68;50.75;100979.81;4678243;29;97566;-46
2022/11/03 05:08:31;;;;;;;0.80;0.20;;;19.40;99.90;;;19.51;50.57;100966.66;4334137;27;15128533;-46
2022/11/03 05:11:39;;;;;;;1.33;0.30;;;19.30;99.90;;;19.52;49.42;100960.34;4807453;27;101344;-45
2022/11/03 05:14:59;;;;;;;1.50;0.20;;;19.30;99.90;;;19.46;51.01;100958.13;4742494;28;97419;-45
2022/11/03 05:37:34;;;;;;;1.40;0.40;;;19.50;99.90;;;19.65;51.06;100915.78;4735573;29;97881;-45
2022/11/03 05:41:19;;;;;;;0.07;0.00;;;19.50;99.90;;;19.64;nan;100900.69;4669102;29;100761;-45
2022/11/03 05:45:29;;;;;;;0.23;0.20;;;19.60;99.90;;;19.64;51.09;100903.38;4703990;29;99744;-48
2022/11/03 05:49:01;;;;;;;0.20;0.20;;;19.50;99.90;;;19.58;51.04;100901.13;4646581;29;98928;-45
2022/11/03 05:52:26;;;;;;;0.90;0.30;;;19.40;99.90;;;19.53;50.98;100911.25;4740298;28;103313;-47
2022/11/03 05:55:38;;;;;;;0.10;0.10;;;19.30;99.90;;;19.51;51.43;100902.47;4714436;28;99886;-45
2022/11/03 05:58:48;;;;;;;0.93;0.30;;;19.20;99.90;;;19.46;50.58;100904.63;4648426;29;97309;-47
2022/11/03 06:02:49;;;;;;;0.50;0.30;;;19.20;99.90;;;19.26;47.48;100900.63;4705533;29;97650;-46
2022/11/03 06:05:21;;;;;;;0.97;0.20;;;19.00;99.90;;;19.15;50.46;100898.69;4750212;29;103528;-45
2022/11/03 06:08:18;;;;;;;0.40;0.40;;;18.80;99.90;;;19.14;51.88;100888.94;4839658;28;97208;-47
2022/11/03 06:10:56;;;;;;;1.40;0.30;;;18.80;99.90;;;19.17;52.03;100883.38;4940070;28;97737;-46
2022/11/03 06:13:35;;;;;;;2.53;0.73;;;18.90;99.90;;;19.26;51.91;100872.06;4958252;28;96831;-46
2022/11/03 06:16:41;;;;;;;0.33;0.23;;;19.00;99.90;;;19.27;51.22;100868.44;4958187;28;102804;-48
2022/11/03 06:19:21;;;;;;;0.43;0.30;;;19.10;99.90;;;19.35;51.85;100872.38;4897562;28;102152;-45
2022/11/03 06:21:50;;;;;;;1.90;0.43;;;19.20;99.90;;;19.37;51.31;100857.09;4913952;28;102543;-46
2022/11/03 06:24:21;;;;;;;0.73;0.27;;;19.30;99.90;;;19.41;51.34;100861.28;4932474;28;99040;-47
2022/11/03 06:26:49;;;;;;;0.10;0.10;;;19.30;99.90;;;19.47;51.54;100859.03;4913968;28;98926;-50
2022/11/03 06:31:53;;;;;;;1.73;0.43;;;19.50;99.90;;;19.59;50.95;100857.34;4987523;22;98846;-45
2022/11/03 06:34:43;;;;;;;0.40;0.23;;;19.60;99.90;;;19.64;50.84;100844.50;4895071;28;99136;-46
2022/11/03 06:37:22;;;;;;;0.30;0.17;;;19.70;99.90;;;19.64;50.66;100843.63;4888962;28;102942;-46
2022/11/03 06:39:48;;;;;;;0.20;0.10;;;19.60;99.90;;;19.70;50.63;100848.56;4881223;28;96994;-45
2022/11/03 06:42:18;;;;;;;0.63;0.30;;;19.70;99.90;;;19.64;48.27;100838.28;4871470;28;98795;-50
2022/11/03 06:44:50;;;;;;;0.50;0.20;;;19.60;99.10;;;19.64;50.90;100839.13;4869213;28;98350;-48
2022/11/03 06:47:27;;;;;;;0.63;0.30;;;19.50;99.90;;;19.65;50.55;100835.50;4872105;28;98180;-47
2022/11/03 06:49:56;;;;;;;1.23;0.30;;;19.50;99.90;;;19.70;50.76;100817.31;4856282;28;98193;-46
2022/11/03 06:52:36;;;;;;;0.53;0.30;;;19.60;99.90;;;19.69;48.92;100807.59;4874709;28;99152;-46
2022/11/03 06:55:11;;;;;;;0.60;0.30;;;19.70;99.90;;;19.75;49.26;100809.81;4865615;28;97752;-51
2022/11/03 06:57:42;;;;;;;1.00;0.30;;;19.80;99.90;;;19.76;49.67;100808.00;4849896;28;104332;-51
2022/11/03 07:00:20;;;;;;;0.33;0.20;;;19.80;99.90;;;19.78;50.42;100798.88;4849380;28;99347;-52
2022/11/03 07:03:36;;;;;;;0.87;0.30;;;19.80;99.90;;;19.81;50.14;100793.28;4874235;28;99260;-52
2022/11/03 07:06:26;;;;;;;0.67;0.27;;;19.80;99.90;;;19.84;50.20;100793.09;4844553;28;98266;-48
2022/11/03 07:08:58;;;;;;;0.20;0.13;;;19.90;99.90;;;19.82;50.22;100794.19;4854944;28;97309;-52
2022/11/03 07:11:31;;;;;;;1.17;0.30;;;19.80;99.90;;;19.81;50.16;100793.28;4874948;28;99862;-49
2022/11/03 07:14:10;;;;;;;2.33;0.50;;;19.80;99.90;;;19.75;48.39;100793.75;4884559;28;98466;-46
2022/11/03 07:16:43;;;;;;;2.57;0.30;;;19.70;99.20;;;19.76;50.21;100798.13;4901985;28;97330;-47
2022/11/03 07:19:28;;;;;;;0.53;0.40;;;19.70;99.90;;;19.77;45.78;100802.53;4904826;28;97871;-50
2022/11/03 07:22:00;;;;;;;1.13;0.63;;;19.70;99.50;;;19.68;46.94;100802.34;4898888;28;98735;-50
2022/11/03 07:24:45;;;;;;;0.30;0.30;;;19.50;99.40;;;19.60;49.35;100800.19;4910993;28;97010;-49
2022/11/03 07:27:33;;;;;;;0.93;0.20;;;19.30;99.90;;;19.65;50.69;100798.03;4904313;28;97691;-51
2022/11/03 07:30:29;;;;;;;1.00;0.20;;;19.40;99.90;;;19.66;50.93;100794.41;4884781;28;102823;-51
2022/11/03 07:33:11;;;;;;;0.30;0.30;;;19.40;99.90;;;19.73;50.85;100790.34;4897584;28;96545;-47
2022/11/03 07:35:44;;;;;;;0.57;0.33;;;19.60;99.90;;;19.78;50.85;100792.66;4900767;28;97520;-52
2022/11/03 07:38:29;;;;;;;0.50;0.43;;;19.70;99.90;;;19.77;50.21;100786.47;4893810;28;106454;-49
2022/11/03 07:40:58;;;;;;;0.30;0.30;;;19.70;99.90;;;19.77;50.31;100791.81;4900232;28;98006;-47
2022/11/03 07:43:34;;;;;;;0.87;0.40;;;19.60;99.90;;;19.71;50.19;100791.41;4893126;28;97470;-53
2022/11/03 07:46:03;;;;;;;3.37;0.57;;;19.60;99.90;;;19.65;50.45;100786.47;4905707;28;97253;-52
2022/11/03 07:48:35;;;;;;;1.13;0.30;;;19.50;99.90;;;19.65;50.73;100781.97;4908056;28;97308;-50
2022/11/03 07:51:40;;;;;;;0.20;0.20;;;19.50;99.90;;;19.70;50.85;100769.16;4920446;28;100381;-52
2022/11/03 07:54:22;;;;;;;0.83;0.40;;;19.60;99.90;;;19.73;49.53;100770.75;4915858;28;102616;-50
2022/11/03 07:56:52;;;;;;;0.60;0.40;;;19.70;99.90;;;19.70;50.50;100768.28;4917860;28;97255;-50
2022/11/03 07:59:34;;;;;;;0.30;0.30;;;19.70;99.90;;;19.72;50.71;100761.88;4918496;28;96889;-52
2022/11/03 08:02:01;;;;;;;0.30;0.20;;;19.70;99.90;;;19.72;50.57;100761.88;4909174;28;100575;-49
2022/11/03 08:04:34;;;;;;;1.00;0.40;;;19.70;99.90;;;19.67;50.53;100750.63;4891054;28;97329;-47
2022/11/03 08:07:00;;;;;;;1.73;0.30;;;19.60;99.90;;;19.69;50.74;100750.53;4899163;28;97054;-49
2022/11/03 08:09:26;;;;;;;0.63;0.43;;;19.60;99.90;;;19.67;47.80;100753.28;4890678;28;96917;-49
2022/11/03 08:11:52;;;;;;;0.40;0.30;;;19.60;99.90;;;19.71;50.49;100760.16;4896367;28;97138;-50
2022/11/03 08:14:18;;;;;;;0.10;0.10;;;19.60;99.90;;;19.68;50.59;100755.03;4893262;28;98165;-50
2022/11/03 08:16:44;;;;;;;0.40;0.20;;;19.60;99.90;;;19.73;50.46;100746.66;4911637;28;99794;-47
2022/11/03 08:19:10;;;;;;;0.77;0.40;;;19.60;99.90;;;19.75;50.14;100753.59;4891692;28;96727;-47
2022/11/03 08:21:36;;;;;;;0.30;0.10;;;19.70;99.90;;;19.81;50.37;100747.78;4894600;28;96769;-51
2022/11/03 08:24:02;;;;;;;0.10;0.10;;;19.80;99.90;;;19.86;50.43;100747.47;4898586;28;122064;-51
2022/11/03 08:26:27;;;;;;;1.70;0.30;;;19.80;99.90;;;19.85;50.31;100746.63;4883319;28;97507;-49
2022/11/03 08:28:53;;;;;;;0.53;0.20;;;19.80;99.90;;;19.82;50.40;100738.84;4895066;28;97562;-45
2022/11/03 08:31:19;;;;;;;0.63;0.47;;;19.80;99.90;;;19.79;50.30;100736.34;4910052;28;110153;-52
2022/11/03 08:33:44;;;;;;;0.40;0.20;;;19.70;99.90;;;19.80;50.55;100726.50;4907542;28;100750;-50
2022/11/03 08:36:11;;;;;;;0.67;0.53;;;19.80;99.90;;;19.80;50.36;100711.28;4919383;28;97529;-47
2022/11/03 08:38:37;;;;;;;0.40;0.30;;;19.80;99.90;;;19.84;50.11;100718.16;4914822;28;97365;-51
2022/11/03 08:41:03;;;;;;;0.87;0.30;;;19.80;99.90;;;19.79;46.76;100709.59;4909087;28;97749;-48
2022/11/03 08:43:29;;;;;;;1.90;0.47;;;19.80;99.50;;;19.79;50.30;100712.25;4918408;28;96969;-49
2022/11/03 08:45:55;;;;;;;2.20;0.73;;;19.70;99.90;;;19.86;49.25;100720.72;4907039;28;97236;-53
2022/11/03 08:48:22;;;;;;;1.40;0.40;;;19.80;99.90;;;19.89;50.06;100709.78;4905191;28;100836;-50
2022/11/03 08:50:53;;;;;;;1.10;0.43;;;19.80;99.90;;;19.80;47.41;100705.94;4916189;28;98703;-53
2022/11/03 08:53:23;;;;;;;1.47;0.83;;;19.80;99.80;;;19.82;50.29;100692.47;4917002;28;98734;-48
2022/11/03 08:55:49;;;;;;;1.50;0.87;;;19.80;99.90;;;19.81;49.58;100691.59;4917857;28;97081;-49
2022/11/03 08:58:15;;;;;;;0.40;0.20;;;19.80;99.90;;;19.83;50.66;100689.69;4914063;28;97053;-52
2022/11/03 09:00:41;;;;;;;2.10;0.40;;;19.90;99.90;;;19.87;50.27;100677.78;4898272;28;97023;-47
2022/11/03 09:03:07;;;;;;;1.83;0.50;;;19.90;99.90;;;19.92;49.51;100678.28;4912575;28;97244;-51
2022/11/03 09:05:33;;;;;;;1.10;0.20;;;20.00;99.90;;;19.91;50.55;100667.69;4902148;28;96981;-51
2022/11/03 09:07:59;;;;;;;0.57;0.27;;;20.00;99.90;;;19.96;50.19;100678.03;4914940;28;97302;-48
2022/11/03 09:10:25;;;;;;;0.40;0.40;;;20.00;99.90;;;19.94;50.15;100664.78;4930372;28;97185;-49
2022/11/03 09:12:52;;;;;;;2.43;0.47;;;20.00;99.90;;;19.92;48.06;100667.56;4935061;28;97168;-51
2022/11/03 09:15:18;;;;;;;0.27;0.23;;;20.00;99.90;;;19.89;50.27;100667.81;4928751;28;97107;-49
2022/11/03 09:17:43;;;;;;;0.40;0.20;;;19.90;99.90;;;19.90;49.96;100664.16;4938200;28;106275;-50
2022/11/03 09:20:10;;;;;;;0.30;0.30;;;19.90;99.90;;;19.91;46.91;100660.50;4939710;28;97596;-54
2022/11/03 09:22:36;;;;;;;2.57;0.23;;;20.00;99.90;;;19.96;48.24;100641.41;4933789;28;97079;-47
2022/11/03 09:25:03;;;;;;;0.43;0.20;;;20.00;99.90;;;19.95;49.68;100638.84;4943332;28;102169;-51
2022/11/03 09:27:30;;;;;;;3.70;0.80;;;20.00;99.90;;;19.88;47.50;100625.94;4942673;28;98900;-48
2022/11/03 09:29:55;;;;;;;0.20;0.20;;;19.90;99.50;;;19.85;50.12;100617.31;4940081;28;97314;-49
2022/11/03 09:32:21;;;;;;;0.50;0.20;;;19.80;99.90;;;19.87;50.20;100616.22;4945810;28;97352;-52
2022/11/03 09:34:47;;;;;;;0.10;0.10;;;19.90;99.90;;;19.89;49.03;100603.56;4932800;28;101246;-52
2022/11/03 09:37:13;;;;;;;0.30;0.20;;;19.90;99.90;;;19.89;48.69;100606.25;4942888;28;106331;-47
2022/11/03 09:39:39;;;;;;;0.47;0.20;;;19.90;99.90;;;19.86;50.36;100598.44;4946805;28;96898;-54
2022/11/03 09:42:05;;;;;;;0.63;0.20;;;19.90;99.90;;;19.87;49.74;100592.13;4925396;28;97792;-45
2022/11/03 09:44:33;;;;;;;1.87;0.27;;;19.90;99.90;;;19.77;48.11;100587.56;4938349;28;97352;-47
2022/11/03 09:46:59;;;;;;;2.17;0.90;;;19.70;99.70;;;19.79;50.49;100577.59;4930574;28;97451;-51
2022/11/03 09:49:27;;;;;;;0.37;0.37;;;19.70;99.90;;;19.83;50.39;100574.59;4932152;28;98010;-48
2022/11/03 09:51:54;;;;;;;0.50;0.20;;;19.80;99.90;;;19.87;49.44;100573.38;4935506;28;96685;-51
2022/11/03 09:54:20;;;;;;;0.67;0.40;;;19.90;99.90;;;19.87;50.07;100567.19;4940997;28;97722;-47
2022/11/03 09:56:46;;;;;;;0.10;0.10;;;19.90;99.90;;;19.92;50.18;100560.50;4942027;28;96746;-45
2022/11/03 09:59:21;;;;;;;0.40;0.20;;;19.90;99.90;;;19.96;49.93;100554.91;4946769;28;97509;-51
2022/11/03 10:01:52;;;;;;;0.47;0.40;;;20.00;99.90;;;19.88;49.32;100553.69;4932628;28;97456;-48
2022/11/03 10:04:28;;;;;;;0.80;0.40;;;19.90;99.90;;;19.81;49.96;100538.19;4935957;28;97362;-46
2022/11/03 10:06:57;;;;;;;2.20;0.60;;;19.70;99.90;;;19.83;50.15;100526.41;4933125;28;97895;-48
2022/11/03 10:09:25;;;;;;;0.33;0.20;;;19.80;99.90;;;19.86;49.74;100518.16;4918589;28;102606;-51
2022/11/03 10:11:54;;;;;;;0.50;0.47;;;19.80;99.90;;;19.84;49.97;100504.03;4925385;28;97279;-46
2022/11/03 10:14:21;;;;;;;1.33;0.30;;;19.90;99.90;;;19.87;50.18;100509.16;4935426;28;97076;-52
2022/11/03 10:16:56;;;;;;;0.17;0.17;;;20.00;99.90;;;19.85;50.10;100499.53;4934633;28;101164;-49
2022/11/03 10:19:23;;;;;;;0.97;0.60;;;20.00;99.90;;;19.82;50.23;100497.94;4937171;28;96930;-47
2022/11/03 10:21:50;;;;;;;0.13;0.13;;;19.90;99.90;;;19.91;48.94;100505.25;4929528;28;97234;-47
2022/11/03 10:24:17;;;;;;;0.23;0.17;;;20.00;99.90;;;19.92;49.86;100509.63;4928338;28;96965;-51
2022/11/03 10:26:55;;;;;;;2.13;0.53;;;20.00;99.90;;;19.92;49.71;100501.59;4932230;28;97546;-49
2022/11/03 10:29:27;;;;;;;1.10;0.40;;;19.90;99.90;;;19.95;50.02;100500.50;4912650;28;97570;-47
2022/11/03 10:31:55;;;;;;;0.10;0.10;;;20.00;99.90;;;19.90;48.59;100500.88;4937118;28;97611;-52
2022/11/03 10:34:36;;;;;;;2.10;0.20;;;20.00;99.90;;;19.89;47.29;100491.16;4929215;28;97175;-49
2022/11/03 10:37:16;;;;;;;0.90;0.47;;;19.90;99.90;;;19.96;49.87;100485.31;4937365;28;97145;-48
2022/11/03 10:39:46;;;;;;;2.30;0.20;;;20.00;99.90;;;19.91;49.79;100475.81;4923535;28;97960;-48
2022/11/03 10:42:31;;;;;;;1.63;0.30;;;20.00;99.90;;;19.94;49.95;100465.84;4926635;28;98170;-54
2022/11/03 10:45:18;;;;;;;0.50;0.20;;;20.00;99.90;;;19.94;50.13;100441.75;4925343;28;96937;-48
2022/11/03 10:47:43;;;;;;;0.80;0.30;;;20.00;99.90;;;19.89;50.29;100426.91;4938258;28;96904;-47
2022/11/03 10:50:25;;;;;;;0.77;0.30;;;20.00;99.90;;;19.88;49.86;100440.41;4926095;28;99469;-49
2022/11/03 10:52:52;;;;;;;0.23;0.20;;;20.00;99.90;;;19.88;49.94;100430.56;4934413;28;98486;-50
2022/11/03 10:55:20;;;;;;;0.60;0.20;;;20.00;99.90;;;19.91;48.64;100430.31;4928469;28;96773;-48
2022/11/03 10:57:46;;;;;;;0.50;0.40;;;20.00;99.90;;;19.91;50.20;100413.41;4927856;28;97095;-47
2022/11/03 11:00:17;;;;;;;0.67;0.27;;;20.00;99.90;;;19.87;50.18;100402.09;4927364;28;97518;-48
2022/11/03 11:02:47;;;;;;;0.60;0.30;;;20.00;99.90;;;19.87;49.51;100394.06;4933271;28;96979;-53
2022/11/03 11:05:23;;;;;;;1.07;0.43;;;20.00;99.90;;;19.98;49.95;100389.69;4935533;28;96794;-52
2022/11/03 11:07:51;;;;;;;2.03;0.40;;;20.10;99.90;;;19.90;48.57;100368.88;4926628;28;97282;-49
2022/11/03 11:10:22;;;;;;;0.63;0.30;;;20.10;99.90;;;19.96;49.84;100367.53;4914980;28;99020;-52
2022/11/03 11:13:03;;;;;;;0.53;0.20;;;20.00;99.90;;;19.96;47.11;100364.84;4933606;28;97516;-48
2022/11/03 11:15:38;;;;;;;0.30;0.17;;;20.00;99.50;;;19.91;49.73;100392.00;4935906;28;97026;-50
2022/11/03 11:18:04;;;;;;;0.40;0.20;;;19.90;99.90;;;19.95;49.89;100397.94;4934029;28;97232;-53
2022/11/03 11:20:37;;;;;;;0.07;0.07;;;20.00;99.90;;;19.90;49.71;100399.16;4927083;28;97368;-49
2022/11/03 11:23:28;;;;;;;0.13;0.13;;;19.90;99.90;;;19.94;49.56;100386.38;4941596;28;99966;-52
2022/11/03 11:26:08;;;;;;;0.40;0.20;;;20.00;99.90;;;19.88;50.12;100377.03;4938862;28;96846;-52
2022/11/03 11:28:46;;;;;;;0.50;0.20;;;20.00;99.90;;;19.87;49.90;100380.69;4932755;28;97519;-48
2022/11/03 11:31:29;;;;;;;0.50;0.20;;;19.90;99.90;;;19.91;49.77;100376.78;4930483;28;96837;-50
2022/11/03 11:34:16;;;;;;;0.47;0.20;;;19.90;99.90;;;19.89;49.43;100388.59;4935784;28;97244;-53
2022/11/03 11:37:06;;;;;;;0.43;0.30;;;19.90;99.90;;;19.70;45.75;100383.81;4926987;28;97135;-48
2022/11/03 11:39:33;;;;;;;2.13;0.33;;;19.60;99.90;;;19.74;50.15;100389.78;4925197;28;96848;-50
2022/11/03 11:42:20;;;;;;;0.30;0.20;;;19.60;99.90;;;19.79;49.10;100388.44;4924393;28;103165;-46
2022/11/03 11:44:56;;;;;;;1.17;0.40;;;19.70;99.80;;;19.80;50.37;100374.09;4933214;28;96981;-52
2022/11/03 11:47:43;;;;;;;0.20;0.20;;;19.80;99.90;;;19.85;50.03;100366.56;4943526;28;98255;-47
2022/11/03 11:50:12;;;;;;;0.13;0.13;;;19.80;99.90;;;19.85;50.08;100355.88;4928306;28;96792;-49
2022/11/03 11:52:57;;;;;;;1.53;0.23;;;19.90;99.90;;;19.91;49.68;100352.69;4933904;28;99170;-48
2022/11/03 11:55:51;;;;;;;0.23;0.20;;;19.90;99.90;;;19.90;49.89;100334.94;4934348;28;97901;-49
2022/11/03 11:58:42;;;;;;;1.40;0.50;;;20.00;99.90;;;19.90;49.63;100313.50;4929425;28;96908;-52
2022/11/03 12:01:34;;;;;;;0.10;0.10;;;19.90;99.90;;;19.85;50.08;100296.97;4935339;28;97344;-52
2022/11/03 12:04:06;;;;;;;0.40;0.40;;;20.00;99.90;;;19.85;48.27;100302.34;4929655;28;101562;-50
2022/11/03 12:06:38;;;;;;;0.70;0.40;;;20.00;99.90;;;19.88;49.99;100280.69;4937266;28;96860;-52
2022/11/03 12:09:29;;;;;;;0.10;0.10;;;20.00;99.90;;;19.81;50.30;100278.59;4923404;28;97099;-51
2022/11/03 12:12:00;;;;;;;0.60;0.50;;;19.90;99.90;;;19.78;50.45;100269.00;4925706;28;96918;-51
2022/11/03 12:14:38;;;;;;;1.03;0.20;;;19.90;99.90;;;19.87;50.13;100270.09;4929104;28;99455;-53
2022/11/03 12:17:16;;;;;;;0.97;0.30;;;20.00;99.90;;;19.84;50.14;100262.31;4927175;28;102414;-49
2022/11/03 12:19:51;;;;;;;0.90;0.30;;;20.00;99.90;;;19.90;50.09;100262.66;4928882;28;96575;-50
2022/11/03 12:22:23;;;;;;;0.63;0.40;;;20.00;99.90;;;19.95;50.01;100243.53;4938498;28;96526;-48
2022/11/03 12:24:56;;;;;;;0.30;0.30;;;20.10;99.90;;;19.96;49.99;100249.75;4934785;28;97394;-52
2022/11/03 12:27:25;;;;;;;0.60;0.30;;;20.10;99.90;;;19.99;49.74;100244.16;4938793;28;97741;-46
2022/11/03 12:29:51;;;;;;;0.40;0.30;;;20.10;99.90;;;19.98;49.52;100243.31;4918254;28;97180;-52
2022/11/03 12:32:18;;;;;;;0.40;0.23;;;20.10;99.90;;;20.03;49.66;100234.91;4929246;28;96969;-48
2022/11/03 12:34:44;;;;;;;1.23;0.30;;;20.10;99.90;;;20.02;49.77;100230.53;4930634;28;97400;-47
2022/11/03 12:37:10;;;;;;;0.90;0.30;;;20.10;99.90;;;20.05;49.05;100223.09;4938585;28;97465;-48
2022/11/03 12:39:36;;;;;;;0.50;0.33;;;20.10;99.90;;;20.01;47.84;100215.44;4931884;28;98628;-50
2022/11/03 12:42:03;;;;;;;0.80;0.30;;;20.10;99.70;;;19.99;49.51;100210.22;4932249;28;96981;-48
2022/11/03 12:44:29;;;;;;;0.67;0.37;;;20.00;99.90;;;19.97;49.66;100209.50;4930555;28;97476;-48
2022/11/03 12:46:54;;;;;;;0.30;0.30;;;20.10;99.90;;;19.96;48.82;100191.72;4933213;28;97268;-48
2022/11/03 12:49:20;;;;;;;0.90;0.30;;;20.10;99.90;;;19.93;49.75;100186.63;4940695;28;97019;-47
2022/11/03 12:51:46;;;;;;;1.10;0.20;;;20.10;99.90;;;19.94;49.84;100192.81;4930934;28;96921;-50
2022/11/03 12:54:12;;;;;;;0.40;0.30;;;20.00;99.90;;;19.91;49.84;100189.41;4936771;28;117208;-52
2022/11/03 12:56:38;;;;;;;0.53;0.37;;;20.00;99.90;;;19.99;49.65;100187.97;4922395;28;97127;-51
2022/11/03 12:59:03;;;;;;;1.93;0.37;;;20.10;99.90;;;19.96;47.75;100170.28;4931725;28;97137;-52
2022/11/03 13:01:29;;;;;;;0.30;0.20;;;20.10;99.40;;;19.96;49.46;100159.59;4924622;28;99275;-48
2022/11/03 13:03:55;;;;;;;0.53;0.40;;;20.00;99.90;;;19.90;49.51;100150.25;4933617;28;111368;-49
2022/11/03 13:06:21;;;;;;;0.77;0.20;;;20.00;99.90;;;19.97;49.39;100139.91;4931887;28;102526;-52
2022/11/03 13:08:48;;;;;;;3.20;0.40;;;20.00;99.90;;;19.98;49.66;100140.75;4919805;28;102169;-51
2022/11/03 13:13:58;;;;;;;0.17;0.17;;;20.10;99.90;;;19.99;49.51;100126.41;4934004;28;101379;-49
2022/11/03 13:16:24;;;;;;;0.60;0.40;;;20.10;99.90;;;19.90;49.18;100126.16;4941057;28;96955;-45
2022/11/03 13:18:50;;;;;;;1.97;0.40;;;20.00;99.90;;;19.92;49.79;100116.19;4938130;28;96999;-48
2022/11/03 13:21:16;;;;;;;0.37;0.20;;;20.10;99.90;;;19.96;49.38;100122.13;4938605;28;96822;-50
2022/11/03 13:23:42;;;;;;;0.10;0.10;;;20.10;99.90;;;19.98;49.70;100114.84;4926609;28;97460;-51
2022/11/03 13:26:08;;;;;;;0.20;0.20;;;20.10;99.90;;;19.99;49.46;100094.28;4929319;28;106770;-49
2022/11/03 13:28:34;;;;;;;0.40;0.30;;;20.10;99.90;;;20.00;48.67;100090.63;4939327;28;96865;-51
2022/11/03 13:31:00;;;;;;;0.60;0.40;;;20.10;99.80;;;19.97;49.27;100080.19;4937599;28;97466;-52
2022/11/03 13:33:26;;;;;;;0.87;0.30;;;20.10;99.90;;;19.93;49.68;100071.53;4937831;28;97387;-49
2022/11/03 13:35:51;;;;;;;0.87;0.23;;;20.10;99.90;;;19.89;49.71;100057.56;4930381;28;100677;-52
2022/11/03 13:38:17;;;;;;;0.23;0.20;;;20.00;99.90;;;19.91;49.64;100060.94;4934017;28;101707;-52
2022/11/03 13:40:43;;;;;;;0.33;0.27;;;20.10;99.90;;;19.96;49.30;100046.31;4928851;28;99925;-52
2022/11/03 13:43:09;;;;;;;0.20;0.20;;;20.10;99.90;;;19.90;49.67;100037.84;4932610;28;97322;-48
2022/11/03 13:45:35;;;;;;;2.17;0.30;;;20.00;99.90;;;19.96;49.32;100035.63;4934191;28;97038;-51
2022/11/03 13:48:00;;;;;;;0.37;0.23;;;20.00;99.90;;;20.01;49.49;100038.78;4935692;28;96922;-48
2022/11/03 13:50:26;;;;;;;0.20;0.20;;;20.10;99.90;;;20.02;49.38;100027.09;4933143;28;97653;-51
2022/11/03 13:52:52;;;;;;;0.93;0.57;;;20.20;99.90;;;20.07;49.05;100014.16;4935819;28;97102;-51
2022/11/03 13:55:18;;;;;;;0.60;0.20;;;20.20;99.90;;;20.02;49.49;99998.50;4930479;28;115527;-51
2022/11/03 13:57:44;;;;;;;2.23;0.53;;;20.20;99.90;;;20.00;48.00;99996.94;4931213;28;97323;-53
2022/11/03 14:00:15;;;;;;;1.20;0.47;;;20.10;99.30;;;20.03;49.18;100012.72;4930196;28;97302;-50
2022/11/03 14:02:42;;;;;;;0.63;0.30;;;20.10;99.90;;;20.03;48.51;99999.34;4927341;28;97748;-52
2022/11/03 14:05:09;;;;;;;7.73;0.87;;;20.10;99.90;;;19.89;49.69;100003.19;4929350;28;97736;-52
2022/11/03 14:07:36;;;;;;;0.20;0.20;;;20.10;99.90;;;19.95;49.44;100001.81;4923391;28;97745;-48
2022/11/03 14:10:03;;;;;;;1.67;0.30;;;20.10;99.90;;;19.96;49.69;99992.78;4939806;28;97084;-50
2022/11/03 14:12:31;;;;;;;0.40;0.33;;;20.10;99.90;;;19.88;49.80;99974.72;4936607;28;98350;-48
2022/11/03 14:15:05;;;;;;;0.30;0.27;;;20.00;99.90;;;19.94;49.24;99987.59;4933361;28;101918;-47
2022/11/03 14:17:32;;;;;;;1.20;0.47;;;20.10;99.90;;;19.83;49.48;99971.63;4932067;28;97057;-52
2022/11/03 14:19:57;;;;;;;2.20;1.23;;;20.00;99.90;;;19.89;49.58;99976.44;4928976;28;96961;-52
2022/11/03 14:22:24;;;;;;;1.47;0.53;;;20.00;99.90;;;19.94;48.99;99973.34;4944154;28;99968;-51
2022/11/03 14:24:50;;;;;;;0.63;0.50;;;20.10;99.90;;;19.87;48.42;99970.38;4936517;28;96567;-50
2022/11/03 14:27:17;;;;;;;1.50;0.53;;;20.00;99.40;;;19.84;49.35;99958.09;4943592;28;97200;-48
2022/11/03 14:29:43;;;;;;;0.20;0.20;;;20.00;99.90;;;19.88;49.23;99948.81;4926422;28;97322;-48
2022/11/03 14:32:12;;;;;;;0.70;0.30;;;20.00;99.90;;;19.85;49.26;99949.09;4938493;28;97414;-48
2022/11/03 14:34:38;;;;;;;1.47;0.57;;;20.00;99.90;;;19.83;49.37;99964.44;4914902;28;102534;-50